Time;durP1;ratioP1;P1;durP2;ratioP2;P2;SDS_P1;SDS_P2;PMS_P1;PMS_P2;Temp;Humidity;BMP_temperature;BMP_pressure;BME280_temperature;BME280_humidity;BME280_pressure;Samples;Min_cycle;Max_cycle;Signal;HPM_P1;HPM_P2
2022/12/05 00:00:36;;;;;;;52.38;27.13;;;;;;;2.05;100.00;100902.88;5023476;28;20061;-79
2022/12/05 00:03:04;;;;;;;57.05;28.40;;;;;;;2.08;100.00;100910.44;5039924;28;20071;-79
2022/12/05 00:05:31;;;;;;;55.42;27.33;;;;;;;2.06;100.00;100902.78;5039666;28;20060;-79
2022/12/05 00:07:58;;;;;;;51.47;28.13;;;;;;;2.04;100.00;100902.06;5038914;28;20418;-79
2022/12/05 00:10:24;;;;;;;54.75;27.75;;;;;;;2.01;100.00;100899.66;5039653;28;20057;-79
2022/12/05 00:12:51;;;;;;;54.88;27.88;;;;;;;2.04;100.00;100901.22;5043592;28;20050;-79
2022/12/05 00:15:19;;;;;;;56.38;28.45;;;;;;;2.03;100.00;100910.72;5025277;28;20569;-79
2022/12/05 00:17:46;;;;;;;57.67;27.17;;;;;;;1.99;100.00;100910.09;5042385;28;20065;-79
2022/12/05 00:20:12;;;;;;;55.42;28.48;;;;;;;2.03;100.00;100913.31;5040672;28;20123;-79
2022/12/05 00:22:39;;;;;;;53.38;28.05;;;;;;;2.03;100.00;100908.16;5039378;28;20053;-79
2022/12/05 00:25:07;;;;;;;53.83;26.98;;;;;;;1.96;100.00;100904.28;5028803;28;20119;-79
2022/12/05 00:27:36;;;;;;;61.88;29.65;;;;;;;1.92;100.00;100913.13;5033897;28;20049;-79
2022/12/05 00:30:04;;;;;;;55.10;27.10;;;;;;;1.93;100.00;100910.44;5039189;28;20056;-80
2022/12/05 00:32:32;;;;;;;57.15;27.58;;;;;;;1.89;100.00;100908.19;5039957;28;20056;-80
2022/12/05 00:34:59;;;;;;;56.70;28.63;;;;;;;1.86;100.00;100900.63;5036183;28;20079;-79
2022/12/05 00:37:26;;;;;;;54.28;26.63;;;;;;;1.91;100.00;100912.31;5039542;28;20053;-79
2022/12/05 00:39:52;;;;;;;56.00;27.15;;;;;;;1.97;100.00;100908.50;5039646;28;20117;-80
2022/12/05 00:42:19;;;;;;;57.60;28.25;;;;;;;1.93;100.00;100907.03;5040925;28;20431;-82
2022/12/05 00:44:46;;;;;;;50.33;26.40;;;;;;;1.96;100.00;100904.28;5042487;28;20063;-81
2022/12/05 00:47:12;;;;;;;53.92;25.98;;;;;;;1.87;100.00;100907.44;5069007;23;20080;-77
2022/12/05 00:49:40;;;;;;;54.75;26.45;;;;;;;1.91;100.00;100916.63;5005681;28;20457;-75
2022/12/05 00:52:07;;;;;;;52.67;27.77;;;;;;;1.91;100.00;100912.31;5010164;28;20056;-79
2022/12/05 00:54:33;;;;;;;51.20;26.65;;;;;;;1.99;100.00;100923.00;5014417;28;20531;-80
2022/12/05 00:57:00;;;;;;;55.42;26.60;;;;;;;2.01;100.00;100915.16;4994573;28;20142;-77
2022/12/05 00:59:27;;;;;;;53.42;25.77;;;;;;;1.99;100.00;100909.25;4973825;28;20093;-78
2022/12/05 01:01:53;;;;;;;53.35;26.30;;;;;;;1.99;100.00;100910.09;4988456;28;20078;-78
2022/12/05 01:04:21;;;;;;;54.88;25.55;;;;;;;1.94;100.00;100916.44;4993818;28;20181;-78
2022/12/05 01:06:50;;;;;;;46.72;24.60;;;;;;;1.98;100.00;100917.91;4993391;28;20157;-79
2022/12/05 01:09:19;;;;;;;51.75;26.38;;;;;;;2.01;100.00;100912.56;4993190;28;20082;-77
2022/12/05 01:11:46;;;;;;;52.10;25.75;;;;;;;1.95;100.00;100918.09;4977383;28;20137;-77
2022/12/05 01:14:14;;;;;;;50.00;25.95;;;;;;;1.95;100.00;100911.19;4974255;28;20094;-76
2022/12/05 01:16:42;;;;;;;49.03;25.88;;;;;;;1.93;100.00;100910.44;4975746;28;20477;-77
2022/12/05 01:19:13;;;;;;;51.30;25.88;;;;;;;2.01;100.00;100907.41;4973937;28;20129;-78
2022/12/05 01:21:40;;;;;;;46.55;24.63;;;;;;;2.02;100.00;100921.97;4974002;28;20102;-78
2022/12/05 01:24:08;;;;;;;49.30;23.13;;;;;;;1.98;100.00;100910.19;4974260;28;20097;-79
2022/12/05 01:26:35;;;;;;;51.55;25.17;;;;;;;2.03;100.00;100915.88;4974290;28;20133;-77
2022/12/05 01:29:02;;;;;;;53.40;25.95;;;;;;;1.99;100.00;100915.25;4974108;28;20443;-79
2022/12/05 01:31:30;;;;;;;49.78;26.08;;;;;;;1.99;100.00;100915.25;4984633;28;20104;-78
2022/12/05 01:33:59;;;;;;;53.75;25.67;;;;;;;1.96;100.00;100924.91;4993602;28;20061;-78
2022/12/05 01:36:27;;;;;;;53.85;25.55;;;;;;;1.95;100.00;100923.25;4993242;28;20046;-78
2022/12/05 01:38:54;;;;;;;53.05;26.38;;;;;;;1.99;100.00;100929.91;4993103;28;20093;-79
2022/12/05 01:41:25;;;;;;;50.22;25.75;;;;;;;2.00;100.00;100926.41;4993116;28;20129;-78
2022/12/05 01:44:00;;;;;;;49.58;25.38;;;;;;;1.96;100.00;100924.91;4994501;28;20054;-80
2022/12/05 01:46:29;;;;;;;52.30;26.45;;;;;;;1.97;100.00;100931.75;4981604;28;20573;-79
2022/12/05 01:49:00;;;;;;;55.25;25.38;;;;;;;1.93;100.00;100931.09;4973345;28;20051;-78
2022/12/05 01:51:27;;;;;;;50.33;25.08;;;;;;;2.00;100.00;100941.88;4974177;28;20134;-79
2022/12/05 01:53:54;;;;;;;53.22;24.60;;;;;;;1.92;100.00;100934.59;4973278;28;20050;-77
2022/12/05 01:56:22;;;;;;;50.20;25.35;;;;;;;1.94;100.00;100937.91;4973992;28;20133;-79
2022/12/05 01:58:51;;;;;;;51.00;24.90;;;;;;;1.94;100.00;100932.75;4973519;28;20142;-79
2022/12/05 02:01:19;;;;;;;48.58;25.17;;;;;;;1.96;100.00;100935.25;4974192;28;20046;-79
2022/12/05 02:03:49;;;;;;;51.63;26.27;;;;;;;1.99;100.00;100935.06;4973979;28;20613;-76
2022/12/05 02:06:16;;;;;;;50.70;25.55;;;;;;;1.96;100.00;100935.25;4988508;28;20077;-76
2022/12/05 02:08:44;;;;;;;50.42;25.27;;;;;;;1.99;100.00;100940.22;4992953;28;20081;-78
2022/12/05 02:11:11;;;;;;;47.40;24.50;;;;;;;1.95;100.00;100938.75;4991239;28;20085;-78
2022/12/05 02:14:00;;;;;;;46.85;26.85;;;;;;;1.92;100.00;100933.78;4992849;28;20086;-77
2022/12/05 02:16:38;;;;;;;50.50;25.83;;;;;;;1.95;100.00;100938.75;4965425;28;20510;-77
2022/12/05 02:19:24;;;;;;;51.20;24.80;;;;;;;2.01;100.00;100938.38;4972830;28;20253;-77
2022/12/05 02:22:21;;;;;;;52.92;25.50;;;;;;;1.93;100.00;100936.25;4972921;28;20563;-78
2022/12/05 02:25:01;;;;;;;46.13;25.00;;;;;;;1.92;100.00;100944.94;4970619;28;20577;-78
2022/12/05 02:27:45;;;;;;;50.10;24.83;;;;;;;1.89;100.00;100939.94;4972491;28;20097;-78
2022/12/05 02:30:16;;;;;;;52.63;26.40;;;;;;;1.88;100.00;100943.47;4972528;28;20505;-77
2022/12/05 02:32:52;;;;;;;51.67;25.17;;;;;;;1.88;100.00;100942.66;4992737;28;20465;-78
2022/12/05 02:35:33;;;;;;;48.03;24.77;;;;;;;1.86;100.00;100939.34;4993421;28;20082;-77
2022/12/05 02:38:12;;;;;;;54.20;25.75;;;;;;;1.85;100.00;100938.50;4994912;28;20113;-77
2022/12/05 02:40:46;;;;;;;51.95;26.65;;;;;;;1.85;100.00;100948.00;4995390;28;20042;-79
2022/12/05 02:43:20;;;;;;;53.47;25.58;;;;;;;1.81;100.00;100943.94;4997829;28;20046;-81
2022/12/05 02:45:52;;;;;;;48.13;25.42;;;;;;;1.74;100.00;100945.22;4989863;28;20046;-79
2022/12/05 02:48:21;;;;;;;50.72;26.83;;;;;;;1.74;100.00;100950.38;4976321;28;20134;-79
2022/12/05 02:50:50;;;;;;;52.60;26.95;;;;;;;1.72;100.00;100947.06;4974747;28;20047;-79
2022/12/05 02:53:20;;;;;;;46.78;25.63;;;;;;;1.74;100.00;100951.22;4976155;28;20186;-80
2022/12/05 02:55:47;;;;;;;50.67;26.17;;;;;;;1.77;100.00;100952.78;4975824;28;20086;-79
2022/12/05 02:58:19;;;;;;;52.67;26.70;;;;;;;1.72;100.00;100952.22;4974364;28;20141;-80
2022/12/05 03:00:50;;;;;;;52.70;25.33;;;;;;;1.75;100.00;100960.63;4981931;28;20054;-77
2022/12/05 03:03:19;;;;;;;48.03;25.08;;;;;;;1.75;100.00;100964.94;4994056;28;20112;-78
2022/12/05 03:05:51;;;;;;;52.88;25.48;;;;;;;1.75;100.00;100962.38;4992671;28;20129;-79
2022/12/05 03:08:24;;;;;;;50.28;25.58;;;;;;;1.70;100.00;100969.53;4992459;28;20457;-79
2022/12/05 03:10:53;;;;;;;54.97;25.98;;;;;;;1.71;100.00;100955.72;4993357;28;20486;-79
2022/12/05 03:13:25;;;;;;;54.70;26.15;;;;;;;1.61;100.00;100961.44;4992681;28;20074;-80
2022/12/05 03:15:56;;;;;;;47.92;26.00;;;;;;;1.58;100.00;100971.09;4986829;28;20117;-79
2022/12/05 03:18:25;;;;;;;52.92;25.88;;;;;;;1.71;100.00;100978.94;4973348;28;20538;-78
2022/12/05 03:20:59;;;;;;;46.17;24.58;;;;;;;1.74;100.00;100976.19;4973810;28;20133;-79
2022/12/05 03:23:30;;;;;;;51.88;24.77;;;;;;;1.71;100.00;100977.19;4972670;28;20561;-79
2022/12/05 03:26:10;;;;;;;51.05;25.55;;;;;;;1.76;100.00;100971.75;4973044;28;20047;-77
2022/12/05 03:28:47;;;;;;;53.15;25.48;;;;;;;1.70;100.00;100974.69;4972282;28;20055;-76
2022/12/05 03:31:24;;;;;;;47.90;25.55;;;;;;;1.57;100.00;100970.25;4981513;28;20125;-78
2022/12/05 03:33:56;;;;;;;50.63;26.27;;;;;;;1.53;100.00;100979.09;4992494;28;20137;-79
2022/12/05 03:36:28;;;;;;;42.70;23.77;;;;;;;1.43;100.00;100977.97;4994948;28;20136;-78
2022/12/05 03:39:02;;;;;;;47.30;24.13;;;;;;;1.37;100.00;100980.09;4996095;28;20146;-78
2022/12/05 03:41:36;;;;;;;50.08;25.35;;;;;;;1.39;100.00;100997.13;4997513;28;20695;-77
2022/12/05 03:44:09;;;;;;;53.65;24.42;;;;;;;1.34;100.00;100986.25;4996243;28;20484;-79
2022/12/05 03:46:41;;;;;;;43.85;23.90;;;;;;;1.34;100.00;100981.09;4980681;28;20089;-79
2022/12/05 03:49:14;;;;;;;48.65;23.75;;;;;;;1.33;100.00;100976.88;4977246;28;20047;-77
2022/12/05 03:51:47;;;;;;;53.67;27.02;;;;;;;1.22;100.00;100984.38;4977626;28;20089;-79
2022/12/05 03:54:21;;;;;;;41.88;20.27;;;;;;;1.23;100.00;100989.44;4976804;28;20145;-76
2022/12/05 03:56:52;;;;;;;46.33;24.95;;;;;;;1.21;100.00;100985.28;4975764;28;20137;-77
2022/12/05 03:59:24;;;;;;;49.83;25.58;;;;;;;1.18;100.00;100985.47;4975079;28;20477;-77
2022/12/05 04:01:54;;;;;;;50.90;24.13;;;;;;;1.17;100.00;100986.38;4988870;28;20081;-78
2022/12/05 04:04:28;;;;;;;50.00;24.55;;;;;;;1.14;100.00;100991.72;4995344;28;20073;-78
2022/12/05 04:06:59;;;;;;;49.25;25.70;;;;;;;1.19;100.00;100997.44;4994567;28;20137;-78
2022/12/05 04:09:29;;;;;;;50.20;25.70;;;;;;;1.16;100.00;100995.03;4994098;28;20092;-77
2022/12/05 04:12:02;;;;;;;48.65;26.25;;;;;;;1.15;100.00;100993.38;4994265;28;20137;-78
2022/12/05 04:14:35;;;;;;;46.58;23.90;;;;;;;1.17;100.00;100996.69;4994616;28;20509;-79
2022/12/05 04:17:07;;;;;;;52.80;26.92;;;;;;;1.18;100.00;101003.50;4979156;28;20186;-78
2022/12/05 04:22:25;;;;;;;49.03;24.80;;;;;;;1.13;100.00;101000.34;4975259;28;20057;-78
2022/12/05 04:27:44;;;;;;;47.45;23.42;;;;;;;1.13;100.00;101003.78;4994470;28;20061;-77
2022/12/05 04:30:14;;;;;;;50.42;24.88;;;;;;;1.07;100.00;101001.53;4992987;28;20133;-77
2022/12/05 04:32:46;;;;;;;45.00;23.60;;;;;;;1.10;100.00;101016.00;4975720;28;20532;-78
2022/12/05 04:35:19;;;;;;;46.00;23.85;;;;;;;1.08;100.00;101004.94;4975200;28;20081;-78
2022/12/05 04:37:47;;;;;;;;;;;;;;;1.12;100.00;101006.44;4975537;28;20089;-77
2022/12/05 04:40:20;;;;;;;44.92;23.83;;;;;;;1.11;100.00;101013.34;4975145;28;20044;-78
2022/12/05 04:42:49;;;;;;;45.08;23.88;;;;;;;1.07;100.00;101016.16;4994222;28;20136;-78
2022/12/05 04:45:20;;;;;;;40.97;22.70;;;;;;;1.22;100.00;101017.88;4975413;28;20090;-78
2022/12/05 04:47:52;;;;;;;39.90;22.10;;;;;;;1.18;100.00;101013.81;4994177;28;20090;-77
2022/12/05 04:50:21;;;;;;;38.60;22.20;;;;;;;1.14;100.00;101013.16;4993913;28;20149;-77
2022/12/05 04:52:52;;;;;;;39.33;22.25;;;;;;;1.17;100.00;101007.84;4981157;28;20317;-78
2022/12/05 04:55:24;;;;;;;40.05;21.38;;;;;;;1.15;100.00;101017.41;4974142;28;20070;-78
2022/12/05 04:57:58;;;;;;;40.25;21.88;;;;;;;1.19;100.00;101012.91;4973439;28;20466;-76
2022/12/05 05:00:28;;;;;;;41.75;22.98;;;;;;;1.16;100.00;101020.81;4976310;28;20142;-78
2022/12/05 05:03:01;;;;;;;42.50;22.35;;;;;;;1.13;100.00;101016.66;4993758;28;20078;-77
2022/12/05 05:05:28;;;;;;;44.13;23.13;;;;;;;1.03;100.00;101017.25;4993433;28;20104;-77
2022/12/05 05:07:55;;;;;;;38.95;21.58;;;;;;;1.02;100.00;101016.41;4992985;28;20161;-78
2022/12/05 05:10:30;;;;;;;44.95;21.60;;;;;;;0.97;100.00;101015.84;4993152;28;20054;-78
2022/12/05 05:12:57;;;;;;;39.67;21.92;;;;;;;0.94;100.00;101021.19;4975893;28;20130;-78
2022/12/05 05:15:24;;;;;;;45.30;22.60;;;;;;;0.90;100.00;101014.53;4974829;28;20138;-77
2022/12/05 05:17:50;;;;;;;42.20;23.52;;;;;;;0.85;100.00;101012.22;4973846;28;20047;-78
2022/12/05 05:20:25;;;;;;;43.78;23.48;;;;;;;0.94;100.00;101022.03;4974015;28;20054;-78
2022/12/05 05:22:53;;;;;;;43.72;24.23;;;;;;;0.92;100.00;101023.84;4974601;28;20054;-78
2022/12/05 05:25:20;;;;;;;42.28;23.13;;;;;;;0.87;100.00;101022.44;4973672;28;20519;-77
2022/12/05 05:27:50;;;;;;;46.92;22.85;;;;;;;0.88;100.00;101031.84;4973881;28;20472;-79
2022/12/05 05:30:18;;;;;;;43.10;22.60;;;;;;;0.89;100.00;101028.34;4975299;28;20050;-78
2022/12/05 05:32:45;;;;;;;40.65;21.67;;;;;;;0.89;100.00;101034.34;4993208;28;20084;-80
2022/12/05 05:35:12;;;;;;;39.55;21.45;;;;;;;0.87;100.00;101035.31;4993523;28;20159;-78
2022/12/05 05:37:41;;;;;;;40.85;23.65;;;;;;;0.86;100.00;101028.50;4992844;28;20564;-78
2022/12/05 05:40:10;;;;;;;42.25;22.25;;;;;;;0.86;100.00;101033.66;4992704;28;20113;-78
2022/12/05 05:42:36;;;;;;;43.50;23.33;;;;;;;0.79;100.00;101028.00;4992389;28;20125;-77
2022/12/05 05:45:04;;;;;;;46.28;22.58;;;;;;;0.73;100.00;101032.66;4993205;28;20137;-76
2022/12/05 05:47:30;;;;;;;44.65;23.38;;;;;;;0.81;100.00;101039.06;4992903;28;20488;-78
2022/12/05 05:49:57;;;;;;;40.00;22.30;;;;;;;0.77;100.00;101035.00;4992154;28;20082;-76
2022/12/05 05:52:23;;;;;;;37.83;21.83;;;;;;;0.83;100.00;101038.97;4992437;28;20544;-75
2022/12/05 05:54:51;;;;;;;42.25;22.77;;;;;;;0.76;100.00;101033.34;4993189;28;20141;-76
2022/12/05 05:57:18;;;;;;;42.00;22.38;;;;;;;0.82;100.00;101043.31;4979357;28;20419;-77
2022/12/05 05:59:46;;;;;;;41.55;22.38;;;;;;;0.83;100.00;101041.56;4972587;28;20161;-77
2022/12/05 06:02:12;;;;;;;41.60;21.60;;;;;;;0.79;100.00;101048.63;4990661;28;20154;-77
2022/12/05 06:04:39;;;;;;;45.30;23.40;;;;;;;0.84;100.00;101038.06;4994029;28;20458;-81
2022/12/05 06:07:05;;;;;;;46.90;23.50;;;;;;;0.81;100.00;101041.66;4993601;28;20053;-77
2022/12/05 06:09:32;;;;;;;43.05;22.73;;;;;;;0.87;100.00;101054.19;4991814;28;20086;-78
2022/12/05 06:12:00;;;;;;;40.22;22.38;;;;;;;0.80;100.00;101045.13;4984968;28;20091;-78
2022/12/05 06:14:27;;;;;;;42.67;22.60;;;;;;;0.82;100.00;101048.47;4973978;28;20074;-78
2022/12/05 06:16:53;;;;;;;42.70;22.90;;;;;;;0.80;100.00;101054.59;4990069;28;20078;-77
2022/12/05 06:19:20;;;;;;;44.28;22.35;;;;;;;0.75;100.00;101044.56;4992545;28;20128;-79
2022/12/05 06:21:49;;;;;;;40.20;22.17;;;;;;;0.72;100.00;101052.44;4994295;28;20050;-78
2022/12/05 06:24:15;;;;;;;42.33;22.30;;;;;;;0.71;100.00;101055.94;4996001;28;20054;-78
2022/12/05 06:26:42;;;;;;;39.33;21.55;;;;;;;0.74;100.00;101055.75;4995606;28;20420;-79
2022/12/05 06:29:10;;;;;;;37.05;22.17;;;;;;;0.77;100.00;101059.91;5001604;28;20144;-80
2022/12/05 06:31:38;;;;;;;39.25;22.83;;;;;;;0.73;100.00;101059.25;5001165;28;20157;-79
2022/12/05 06:34:04;;;;;;;39.63;23.10;;;;;;;0.69;100.00;101062.91;5001554;28;20054;-79
2022/12/05 06:36:34;;;;;;;36.38;22.02;;;;;;;0.71;100.00;101061.06;5002065;28;20132;-82
2022/12/05 06:39:01;;;;;;;40.67;22.42;;;;;;;0.71;100.00;101061.06;5000330;28;20751;-79
2022/12/05 06:41:28;;;;;;;43.28;22.70;;;;;;;0.70;100.00;101059.41;4993698;28;20105;-79
2022/12/05 06:43:55;;;;;;;41.53;23.70;;;;;;;0.75;100.00;101072.06;4982756;28;20126;-79
2022/12/05 06:46:25;;;;;;;43.88;22.38;;;;;;;0.74;100.00;101078.94;4982390;28;20055;-79
2022/12/05 06:48:52;;;;;;;40.90;22.65;;;;;;;0.78;100.00;101072.72;4980473;28;20063;-79
2022/12/05 06:51:19;;;;;;;42.42;22.33;;;;;;;0.75;100.00;101072.88;4981793;28;20047;-79
2022/12/05 06:53:46;;;;;;;41.05;23.55;;;;;;;0.78;100.00;101070.13;4981307;28;20055;-80
2022/12/05 06:56:15;;;;;;;45.25;24.38;;;;;;;0.74;100.00;101071.22;4987464;28;20054;-79
2022/12/05 06:58:45;;;;;;;41.58;23.10;;;;;;;0.69;100.00;101078.34;5002348;28;20088;-79
2022/12/05 07:04:01;;;;;;;46.97;23.27;;;;;;;0.74;100.00;101086.69;4985509;28;20070;-81
2022/12/05 07:06:29;;;;;;;41.35;22.92;;;;;;;0.71;100.00;101079.09;4985150;28;20050;-79
2022/12/05 07:08:55;;;;;;;40.92;22.77;;;;;;;0.72;100.00;101083.34;4984792;28;20525;-79
2022/12/05 07:11:22;;;;;;;49.60;25.80;;;;;;;0.68;100.00;101088.75;4994540;28;20046;-79
2022/12/05 07:13:49;;;;;;;48.40;25.88;;;;;;;0.64;100.00;101091.47;5001072;28;20061;-78
2022/12/05 07:16:15;;;;;;;44.35;24.80;;;;;;;0.68;100.00;101087.00;5000848;28;20092;-81
2022/12/05 07:18:42;;;;;;;45.78;24.08;;;;;;;0.65;100.00;101094.88;4999649;28;20100;-78
2022/12/05 07:21:15;;;;;;;44.45;24.75;;;;;;;0.64;100.00;101103.53;5000156;28;20081;-78
2022/12/05 07:23:44;;;;;;;43.15;24.23;;;;;;;0.68;100.00;101105.03;5000310;28;20042;-79
2022/12/05 07:26:13;;;;;;;45.97;23.55;;;;;;;0.73;100.00;101110.78;4989689;28;20450;-81
2022/12/05 07:28:40;;;;;;;45.25;23.80;;;;;;;0.71;100.00;101117.75;4981807;28;20055;-78
2022/12/05 07:31:09;;;;;;;42.83;22.40;;;;;;;0.72;100.00;101113.44;4989084;28;20069;-78
2022/12/05 07:33:36;;;;;;;45.13;23.60;;;;;;;0.77;100.00;101117.44;4999452;28;20066;-79
2022/12/05 07:36:05;;;;;;;41.30;24.10;;;;;;;0.79;100.00;101113.03;4998077;28;20057;-79
2022/12/05 07:38:33;;;;;;;45.05;24.60;;;;;;;0.82;100.00;101119.75;4996951;28;20089;-80
2022/12/05 07:40:59;;;;;;;44.63;24.33;;;;;;;0.80;100.00;101122.41;4995377;28;20064;-80
2022/12/05 07:43:26;;;;;;;43.78;22.55;;;;;;;0.83;100.00;101122.25;4994285;28;20074;-80
2022/12/05 07:45:53;;;;;;;42.40;23.48;;;;;;;0.79;100.00;101132.81;4989397;28;20496;-80
2022/12/05 07:48:19;;;;;;;47.03;23.33;;;;;;;0.81;100.00;101121.50;4996914;28;20054;-80
2022/12/05 07:50:46;;;;;;;46.50;24.75;;;;;;;0.79;100.00;101125.91;5013439;28;20053;-80
2022/12/05 07:53:13;;;;;;;40.15;23.33;;;;;;;0.81;100.00;101131.81;5014367;28;20120;-80
2022/12/05 07:55:41;;;;;;;39.17;22.60;;;;;;;0.85;100.00;101133.31;4980162;28;20104;-80
2022/12/05 07:58:07;;;;;;;44.83;22.98;;;;;;;0.85;100.00;101130.72;4974193;28;20078;-82
2022/12/05 08:00:34;;;;;;;44.47;23.30;;;;;;;0.84;100.00;101129.06;4978050;28;20488;-79
2022/12/05 08:03:06;;;;;;;40.33;23.27;;;;;;;0.77;100.00;101125.16;4994192;28;20458;-80
2022/12/05 08:05:37;;;;;;;45.95;24.50;;;;;;;0.88;100.00;101143.47;4993158;28;20114;-80
2022/12/05 08:08:06;;;;;;;45.92;24.65;;;;;;;0.89;100.00;101136.56;4994674;28;20457;-80
2022/12/05 08:10:34;;;;;;;40.65;21.83;;;;;;;0.89;100.00;101139.13;4981693;28;20129;-80
2022/12/05 08:13:02;;;;;;;44.85;23.10;;;;;;;0.95;100.00;101146.50;4993310;28;20070;-80
2022/12/05 08:15:31;;;;;;;40.47;23.55;;;;;;;1.00;100.00;101140.19;4992794;28;20054;-80
2022/12/05 08:17:57;;;;;;;39.58;22.60;;;;;;;1.00;100.00;101145.34;4988748;28;20050;-79
2022/12/05 08:20:27;;;;;;;43.30;22.50;;;;;;;1.08;100.00;101146.69;4992184;28;20129;-80
2022/12/05 08:22:53;;;;;;;43.92;22.77;;;;;;;1.11;100.00;101154.25;4994086;28;20081;-80
2022/12/05 08:25:20;;;;;;;39.67;23.10;;;;;;;1.18;100.00;101147.84;4979509;28;20086;-80
2022/12/05 08:27:46;;;;;;;41.70;21.55;;;;;;;1.14;100.00;101152.34;4988250;28;20093;-81
2022/12/05 08:30:16;;;;;;;39.88;23.17;;;;;;;1.17;100.00;101159.09;4999899;28;20077;-80
2022/12/05 08:32:43;;;;;;;42.17;23.25;;;;;;;1.16;100.00;101149.69;4987217;28;20473;-81
2022/12/05 08:35:10;;;;;;;43.13;24.15;;;;;;;1.34;100.00;101169.31;4996287;28;20054;-82
2022/12/05 08:37:39;;;;;;;42.17;24.65;;;;;;;1.33;100.00;101167.66;4996497;28;20056;-79
2022/12/05 08:40:07;;;;;;;43.15;24.05;;;;;;;1.18;100.00;101153.00;4984523;28;20081;-80
2022/12/05 08:42:33;;;;;;;39.08;22.35;;;;;;;1.24;100.00;101168.16;4975907;28;20443;-80
2022/12/05 08:45:00;;;;;;;45.45;23.50;;;;;;;1.23;100.00;101171.66;4979240;28;20054;-81
2022/12/05 08:47:28;;;;;;;44.55;22.75;;;;;;;1.18;100.00;101179.63;4997111;28;20214;-81
2022/12/05 08:49:55;;;;;;;41.95;23.05;;;;;;;1.15;100.00;101179.78;4997157;28;20069;-80
2022/12/05 08:52:21;;;;;;;44.58;25.05;;;;;;;1.10;100.00;101168.06;4996470;28;20060;-79
2022/12/05 08:54:48;;;;;;;47.78;24.33;;;;;;;1.15;100.00;101178.97;4989617;28;20055;-80
2022/12/05 08:57:15;;;;;;;44.75;24.20;;;;;;;1.11;100.00;101177.44;4977676;28;20134;-80
2022/12/05 08:59:41;;;;;;;43.65;24.13;;;;;;;1.13;100.00;101180.78;4977353;28;20073;-80
2022/12/05 09:02:09;;;;;;;42.97;23.75;;;;;;;1.18;100.00;101181.38;4992917;28;20390;-80
2022/12/05 09:04:37;;;;;;;48.30;27.27;;;;;;;1.15;100.00;101179.78;4996709;28;20153;-78
2022/12/05 09:07:05;;;;;;;45.05;26.45;;;;;;;1.21;100.00;101184.63;4994916;28;20055;-77
2022/12/05 09:09:35;;;;;;;42.95;25.23;;;;;;;1.17;100.00;101179.72;4993827;28;20521;-79
2022/12/05 09:12:04;;;;;;;40.53;24.70;;;;;;;1.26;100.00;101189.53;4994134;28;20130;-79
2022/12/05 09:14:31;;;;;;;46.92;26.02;;;;;;;1.31;100.00;101190.13;4994753;28;20097;-77
2022/12/05 09:16:59;;;;;;;47.58;26.48;;;;;;;1.37;100.00;101184.63;4994322;28;20050;-77
2022/12/05 09:19:26;;;;;;;43.83;25.10;;;;;;;1.31;100.00;101179.81;4993366;28;20081;-78
2022/12/05 09:21:55;;;;;;;45.85;26.52;;;;;;;1.20;100.00;101188.09;4994040;28;20046;-77
2022/12/05 09:24:21;;;;;;;46.47;24.45;;;;;;;1.22;100.00;101190.59;4994035;28;20512;-78
2022/12/05 09:26:48;;;;;;;44.95;25.48;;;;;;;1.26;100.00;101198.09;4994296;28;20137;-78
2022/12/05 09:29:15;;;;;;;44.28;24.48;;;;;;;1.30;100.00;101198.75;4993085;28;20580;-78
2022/12/05 09:31:41;;;;;;;46.17;24.67;;;;;;;1.30;100.00;101188.44;4981422;28;20053;-78
2022/12/05 09:34:08;;;;;;;43.15;25.17;;;;;;;1.26;100.00;101199.84;4993373;28;20137;-78
2022/12/05 09:36:35;;;;;;;47.13;25.70;;;;;;;1.32;100.00;101194.34;4993745;28;20054;-80
2022/12/05 09:39:07;;;;;;;47.30;26.27;;;;;;;1.38;100.00;101194.03;4988149;28;20078;-78
2022/12/05 09:42:07;;;;;;;45.88;26.67;;;;;;;1.37;100.00;101188.94;4973015;28;20054;-78
2022/12/05 09:44:43;;;;;;;43.67;24.63;;;;;;;1.37;100.00;101194.94;4973398;28;20097;-79
2022/12/05 09:47:21;;;;;;;45.15;24.45;;;;;;;1.37;100.00;101189.78;4973751;28;20482;-78
2022/12/05 09:49:53;;;;;;;45.13;24.83;;;;;;;1.35;100.00;101190.78;4992369;28;20050;-79
2022/12/05 09:52:25;;;;;;;40.45;23.98;;;;;;;1.37;100.00;101201.84;4992262;28;20106;-78
2022/12/05 09:54:54;;;;;;;42.72;23.92;;;;;;;1.33;100.00;101193.44;4993064;28;20050;-79
2022/12/05 09:57:29;;;;;;;42.83;26.00;;;;;;;1.39;100.00;101193.13;4993162;28;20084;-76
2022/12/05 09:59:56;;;;;;;41.92;23.38;;;;;;;1.39;100.00;101187.97;4993204;28;20380;-78
2022/12/05 10:02:32;;;;;;;40.08;24.83;;;;;;;1.46;100.00;101194.41;4974074;28;20138;-79
2022/12/05 10:05:06;;;;;;;40.90;24.08;;;;;;;1.41;100.00;101193.88;4974104;28;20078;-79
2022/12/05 10:07:39;;;;;;;38.85;23.85;;;;;;;1.37;100.00;101191.53;4973596;28;20054;-78
2022/12/05 10:10:27;;;;;;;42.42;24.10;;;;;;;1.31;100.00;101185.78;4990973;28;20088;-77
2022/12/05 10:13:08;;;;;;;42.28;24.33;;;;;;;1.40;100.00;101191.38;4992920;28;20060;-78
2022/12/05 10:15:40;;;;;;;42.63;24.08;;;;;;;1.46;100.00;101186.69;4993412;28;20129;-79
2022/12/05 10:18:14;;;;;;;45.43;26.47;;;;;;;1.52;100.00;101198.41;4991945;28;20050;-79
2022/12/05 10:20:47;;;;;;;41.05;25.05;;;;;;;1.49;100.00;101190.84;4991835;28;20133;-78
2022/12/05 10:23:20;;;;;;;43.80;25.08;;;;;;;1.42;100.00;101192.91;4991814;28;20050;-78
2022/12/05 10:25:48;;;;;;;;;;;;;;;1.41;100.00;101199.03;4993073;28;20073;-78
2022/12/05 10:28:25;;;;;;;38.83;24.02;;;;;;;1.45;100.00;101195.31;4991698;28;20000;-76
2022/12/05 10:30:58;;;;;;;41.90;22.70;;;;;;;1.46;100.00;101203.91;4991136;28;20137;-79
2022/12/05 10:33:31;;;;;;;42.45;23.38;;;;;;;1.44;100.00;101211.72;4991862;28;20149;-78
2022/12/05 10:35:58;;;;;;;43.85;23.45;;;;;;;1.46;100.00;101214.22;4992210;28;20501;-78
2022/12/05 10:38:28;;;;;;;47.35;25.20;;;;;;;1.44;100.00;101205.72;4992483;28;20092;-78
2022/12/05 10:41:00;;;;;;;44.20;23.70;;;;;;;1.44;100.00;101205.72;4992241;28;20054;-78
2022/12/05 10:43:29;;;;;;;37.20;23.27;;;;;;;1.43;100.00;101204.91;4992949;28;20064;-79
2022/12/05 10:45:56;;;;;;;35.50;21.83;;;;;;;1.51;100.00;101207.06;4993174;28;20149;-78
2022/12/05 10:48:24;;;;;;;36.30;22.35;;;;;;;1.56;100.00;101211.06;4991237;28;20137;-79
2022/12/05 10:50:56;;;;;;;35.47;21.67;;;;;;;1.52;100.00;101208.72;4992246;28;20050;-78
2022/12/05 10:53:26;;;;;;;29.70;17.52;;;;;;;1.50;100.00;101208.81;4992472;28;20137;-78
2022/12/05 10:55:53;;;;;;;40.78;22.85;;;;;;;1.54;100.00;101212.88;4992335;28;20074;-78
2022/12/05 10:58:25;;;;;;;38.80;22.85;;;;;;;1.56;100.00;101210.22;4992578;28;20081;-78
2022/12/05 11:00:54;;;;;;;38.83;23.60;;;;;;;1.58;100.00;101200.66;4992621;28;20446;-79
2022/12/05 11:03:27;;;;;;;37.13;22.80;;;;;;;1.69;100.00;101198.31;4993147;28;20487;-80
2022/12/05 11:05:56;;;;;;;39.33;22.90;;;;;;;1.73;100.00;101196.41;4993763;28;20073;-79
2022/12/05 11:08:25;;;;;;;38.28;22.98;;;;;;;1.85;100.00;101200.88;4996263;28;20090;-78
2022/12/05 11:11:02;;;;;;;38.28;23.20;;;;;;;1.92;100.00;101200.41;4999019;28;20054;-79
2022/12/05 11:13:30;;;;;;;40.53;23.17;;;;;;;1.92;100.00;101207.34;4997281;28;20050;-78
2022/12/05 11:15:57;;;;;;;41.35;24.13;;;;;;;1.96;100.00;101199.34;4996394;28;20057;-78
2022/12/05 11:18:31;;;;;;;37.15;22.67;;;;;;;1.93;100.00;101206.41;4992390;28;20058;-78
2022/12/05 11:21:10;;;;;;;41.35;23.85;;;;;;;1.92;100.00;101203.00;4990460;28;20133;-78
2022/12/05 11:23:38;;;;;;;37.80;22.58;;;;;;;1.89;100.00;101202.38;4991018;28;20047;-77
2022/12/05 11:26:14;;;;;;;37.28;21.90;;;;;;;1.81;100.00;101201.97;4990861;28;20141;-78
2022/12/05 11:28:44;;;;;;;40.97;23.85;;;;;;;1.88;100.00;101205.88;4990644;28;20477;-78